sensor_id;sensor_type;location;lat;lon;timestamp;temperature;humidity
11538;DHT22;50159;49.426;11.182;2022-12-17T00:02:14;-3.90;99.90
11538;DHT22;50159;49.426;11.182;2022-12-17T00:04:59;-3.90;99.90
11538;DHT22;50159;49.426;11.182;2022-12-17T00:07:44;-4.00;99.90
11538;DHT22;50159;49.426;11.182;2022-12-17T00:10:29;-4.00;99.90
11538;DHT22;50159;49.426;11.182;2022-12-17T00:13:21;-4.00;99.90
11538;DHT22;50159;49.426;11.182;2022-12-17T00:16:07;-4.00;99.90
11538;DHT22;50159;49.426;11.182;2022-12-17T00:18:52;-4.00;99.90
11538;DHT22;50159;49.426;11.182;2022-12-17T00:21:37;-4.00;99.90
11538;DHT22;50159;49.426;11.182;2022-12-17T00:24:23;-4.00;99.90
11538;DHT22;50159;49.426;11.182;2022-12-17T00:27:08;-4.00;99.90
11538;DHT22;50159;49.426;11.182;2022-12-17T00:29:54;-4.00;99.90
11538;DHT22;50159;49.426;11.182;2022-12-17T00:32:39;-4.00;99.90
11538;DHT22;50159;49.426;11.182;2022-12-17T00:35:25;-4.00;99.90
11538;DHT22;50159;49.426;11.182;2022-12-17T00:38:15;-4.00;99.90
11538;DHT22;50159;49.426;11.182;2022-12-17T00:41:14;-4.00;99.90
11538;DHT22;50159;49.426;11.182;2022-12-17T00:43:59;-4.00;99.90
11538;DHT22;50159;49.426;11.182;2022-12-17T00:46:45;-4.00;99.90
11538;DHT22;50159;49.426;11.182;2022-12-17T00:49:30;-4.00;99.90
11538;DHT22;50159;49.426;11.182;2022-12-17T00:52:15;-4.10;99.90
11538;DHT22;50159;49.426;11.182;2022-12-17T00:55:00;-4.10;99.90
11538;DHT22;50159;49.426;11.182;2022-12-17T00:57:46;-4.10;99.90
11538;DHT22;50159;49.426;11.182;2022-12-17T01:00:37;-4.20;99.90
11538;DHT22;50159;49.426;11.182;2022-12-17T01:03:23;-4.20;99.90
11538;DHT22;50159;49.426;11.182;2022-12-17T01:06:09;-4.30;99.90
11538;DHT22;50159;49.426;11.182;2022-12-17T01:08:54;-4.40;99.90
11538;DHT22;50159;49.426;11.182;2022-12-17T01:11:39;-4.50;99.90
11538;DHT22;50159;49.426;11.182;2022-12-17T01:14:25;-4.50;99.90
11538;DHT22;50159;49.426;11.182;2022-12-17T01:17:11;-4.60;99.90
11538;DHT22;50159;49.426;11.182;2022-12-17T01:19:57;-4.60;99.90
11538;DHT22;50159;49.426;11.182;2022-12-17T01:22:44;-4.60;99.90
11538;DHT22;50159;49.426;11.182;2022-12-17T01:25:30;-4.60;99.90
11538;DHT22;50159;49.426;11.182;2022-12-17T01:28:29;-4.60;99.90
11538;DHT22;50159;49.426;11.182;2022-12-17T01:31:14;-4.60;99.90
11538;DHT22;50159;49.426;11.182;2022-12-17T01:34:01;-4.60;99.90
11538;DHT22;50159;49.426;11.182;2022-12-17T01:36:47;-4.60;99.90
11538;DHT22;50159;49.426;11.182;2022-12-17T01:39:32;-4.50;99.90
11538;DHT22;50159;49.426;11.182;2022-12-17T01:42:18;-4.70;99.90
11538;DHT22;50159;49.426;11.182;2022-12-17T01:45:05;-4.60;99.90
11538;DHT22;50159;49.426;11.182;2022-12-17T01:48:00;-4.60;99.90
11538;DHT22;50159;49.426;11.182;2022-12-17T01:50:51;-4.60;99.90
11538;DHT22;50159;49.426;11.182;2022-12-17T01:53:50;-4.60;99.90
11538;DHT22;50159;49.426;11.182;2022-12-17T01:56:40;-4.70;99.90
11538;DHT22;50159;49.426;11.182;2022-12-17T01:59:44;-4.70;99.90
11538;DHT22;50159;49.426;11.182;2022-12-17T02:02:34;-4.60;99.90
11538;DHT22;50159;49.426;11.182;2022-12-17T02:05:24;-4.70;99.90
11538;DHT22;50159;49.426;11.182;2022-12-17T02:08:28;-4.70;99.90
11538;DHT22;50159;49.426;11.182;2022-12-17T02:15:09;-4.80;99.90
11538;DHT22;50159;49.426;11.182;2022-12-17T02:18:10;-4.90;99.90
11538;DHT22;50159;49.426;11.182;2022-12-17T02:21:03;-5.00;99.90
11538;DHT22;50159;49.426;11.182;2022-12-17T02:24:22;-5.00;99.90
11538;DHT22;50159;49.426;11.182;2022-12-17T02:27:15;-5.10;99.90
11538;DHT22;50159;49.426;11.182;2022-12-17T02:30:04;-5.20;99.90
11538;DHT22;50159;49.426;11.182;2022-12-17T02:32:52;-5.30;99.90
11538;DHT22;50159;49.426;11.182;2022-12-17T02:35:45;-5.40;99.90
11538;DHT22;50159;49.426;11.182;2022-12-17T02:38:33;-5.50;99.90
11538;DHT22;50159;49.426;11.182;2022-12-17T02:41:29;-5.50;99.90
11538;DHT22;50159;49.426;11.182;2022-12-17T02:44:25;-5.50;99.90
11538;DHT22;50159;49.426;11.182;2022-12-17T02:47:13;-5.60;99.90
11538;DHT22;50159;49.426;11.182;2022-12-17T02:49:59;-5.60;99.90
11538;DHT22;50159;49.426;11.182;2022-12-17T02:52:46;-5.70;99.90
11538;DHT22;50159;49.426;11.182;2022-12-17T02:55:34;-5.80;99.90
11538;DHT22;50159;49.426;11.182;2022-12-17T02:58:19;-5.80;99.90
11538;DHT22;50159;49.426;11.182;2022-12-17T03:01:05;-6.00;99.90
11538;DHT22;50159;49.426;11.182;2022-12-17T03:03:51;-6.00;99.90
11538;DHT22;50159;49.426;11.182;2022-12-17T03:06:36;-6.10;99.90
11538;DHT22;50159;49.426;11.182;2022-12-17T03:09:22;-6.20;99.90
11538;DHT22;50159;49.426;11.182;2022-12-17T03:12:07;-6.30;99.90
11538;DHT22;50159;49.426;11.182;2022-12-17T03:14:52;-6.30;99.90
11538;DHT22;50159;49.426;11.182;2022-12-17T03:17:38;-6.40;99.90
11538;DHT22;50159;49.426;11.182;2022-12-17T03:20:23;-6.40;99.90
11538;DHT22;50159;49.426;11.182;2022-12-17T03:23:10;-6.50;99.90
11538;DHT22;50159;49.426;11.182;2022-12-17T03:26:00;-6.50;99.90
11538;DHT22;50159;49.426;11.182;2022-12-17T03:28:47;-6.60;99.90
11538;DHT22;50159;49.426;11.182;2022-12-17T03:31:33;-6.60;99.90
11538;DHT22;50159;49.426;11.182;2022-12-17T03:34:19;-6.70;99.90
11538;DHT22;50159;49.426;11.182;2022-12-17T03:37:05;-6.80;99.90
11538;DHT22;50159;49.426;11.182;2022-12-17T03:39:50;-6.80;99.90
11538;DHT22;50159;49.426;11.182;2022-12-17T03:42:36;-6.90;99.90
11538;DHT22;50159;49.426;11.182;2022-12-17T03:45:21;-7.00;99.90
11538;DHT22;50159;49.426;11.182;2022-12-17T03:48:09;-7.00;99.90
11538;DHT22;50159;49.426;11.182;2022-12-17T03:50:55;-7.10;99.90
11538;DHT22;50159;49.426;11.182;2022-12-17T03:53:41;-7.20;99.90
11538;DHT22;50159;49.426;11.182;2022-12-17T03:56:39;-7.10;99.90
11538;DHT22;50159;49.426;11.182;2022-12-17T03:59:24;-7.30;99.90
11538;DHT22;50159;49.426;11.182;2022-12-17T04:02:09;-7.40;99.90
11538;DHT22;50159;49.426;11.182;2022-12-17T04:04:55;-7.50;99.90
11538;DHT22;50159;49.426;11.182;2022-12-17T04:07:46;-7.50;99.90
11538;DHT22;50159;49.426;11.182;2022-12-17T04:10:31;-7.50;99.90
11538;DHT22;50159;49.426;11.182;2022-12-17T04:13:16;-7.70;99.90
11538;DHT22;50159;49.426;11.182;2022-12-17T04:16:07;-7.70;99.90
11538;DHT22;50159;49.426;11.182;2022-12-17T04:18:53;-7.80;99.90
11538;DHT22;50159;49.426;11.182;2022-12-17T04:21:38;-7.80;99.90
11538;DHT22;50159;49.426;11.182;2022-12-17T04:24:24;-7.80;99.90
11538;DHT22;50159;49.426;11.182;2022-12-17T04:27:09;-7.80;99.90
11538;DHT22;50159;49.426;11.182;2022-12-17T04:29:55;-7.90;99.90
11538;DHT22;50159;49.426;11.182;2022-12-17T04:32:40;-7.90;99.90
11538;DHT22;50159;49.426;11.182;2022-12-17T04:35:25;-8.00;99.90
11538;DHT22;50159;49.426;11.182;2022-12-17T04:38:11;-8.10;99.90
11538;DHT22;50159;49.426;11.182;2022-12-17T04:40:56;-8.10;99.90
11538;DHT22;50159;49.426;11.182;2022-12-17T04:43:41;-8.10;99.90
11538;DHT22;50159;49.426;11.182;2022-12-17T04:46:30;-8.20;99.90
11538;DHT22;50159;49.426;11.182;2022-12-17T04:49:15;-8.30;99.90
11538;DHT22;50159;49.426;11.182;2022-12-17T04:52:01;-8.30;99.90
11538;DHT22;50159;49.426;11.182;2022-12-17T04:54:46;-8.40;99.90
11538;DHT22;50159;49.426;11.182;2022-12-17T04:57:32;-8.40;99.90
11538;DHT22;50159;49.426;11.182;2022-12-17T05:00:18;-8.50;99.90
11538;DHT22;50159;49.426;11.182;2022-12-17T05:03:10;-8.60;99.90
11538;DHT22;50159;49.426;11.182;2022-12-17T05:06:00;-8.70;99.90
11538;DHT22;50159;49.426;11.182;2022-12-17T05:08:46;-8.80;99.90
11538;DHT22;50159;49.426;11.182;2022-12-17T05:11:31;-8.80;99.90
11538;DHT22;50159;49.426;11.182;2022-12-17T05:14:17;-8.90;99.90
11538;DHT22;50159;49.426;11.182;2022-12-17T05:17:02;-9.00;99.90
11538;DHT22;50159;49.426;11.182;2022-12-17T05:19:47;-8.90;99.90
11538;DHT22;50159;49.426;11.182;2022-12-17T05:22:33;-8.90;99.90
11538;DHT22;50159;49.426;11.182;2022-12-17T05:25:18;-8.90;99.90
11538;DHT22;50159;49.426;11.182;2022-12-17T05:28:04;-9.00;99.90
11538;DHT22;50159;49.426;11.182;2022-12-17T05:30:53;-9.10;99.90
11538;DHT22;50159;49.426;11.182;2022-12-17T05:33:40;-9.10;99.90
11538;DHT22;50159;49.426;11.182;2022-12-17T05:36:25;-9.10;99.90
11538;DHT22;50159;49.426;11.182;2022-12-17T05:39:11;-9.10;99.90
11538;DHT22;50159;49.426;11.182;2022-12-17T05:41:56;-9.10;99.90
11538;DHT22;50159;49.426;11.182;2022-12-17T05:44:42;-9.10;99.90
11538;DHT22;50159;49.426;11.182;2022-12-17T05:47:27;-9.10;99.90
11538;DHT22;50159;49.426;11.182;2022-12-17T05:50:13;-9.10;99.90
11538;DHT22;50159;49.426;11.182;2022-12-17T05:53:02;-9.20;99.90
11538;DHT22;50159;49.426;11.182;2022-12-17T05:55:50;-9.30;99.90
11538;DHT22;50159;49.426;11.182;2022-12-17T05:58:37;-9.40;99.90
11538;DHT22;50159;49.426;11.182;2022-12-17T06:01:23;-9.40;99.90
11538;DHT22;50159;49.426;11.182;2022-12-17T06:04:10;-9.50;99.90
11538;DHT22;50159;49.426;11.182;2022-12-17T06:06:55;-9.50;99.90
11538;DHT22;50159;49.426;11.182;2022-12-17T06:09:40;-9.60;99.90
11538;DHT22;50159;49.426;11.182;2022-12-17T06:12:26;-9.60;99.90
11538;DHT22;50159;49.426;11.182;2022-12-17T06:15:11;-9.60;99.90
11538;DHT22;50159;49.426;11.182;2022-12-17T06:17:57;-9.60;99.90
11538;DHT22;50159;49.426;11.182;2022-12-17T06:20:43;-9.60;99.90
11538;DHT22;50159;49.426;11.182;2022-12-17T06:23:29;-9.70;99.90
11538;DHT22;50159;49.426;11.182;2022-12-17T06:26:15;-9.80;99.90
11538;DHT22;50159;49.426;11.182;2022-12-17T06:29:00;-9.90;99.90
11538;DHT22;50159;49.426;11.182;2022-12-17T06:31:45;-9.90;99.90
11538;DHT22;50159;49.426;11.182;2022-12-17T06:34:31;-9.90;99.90
11538;DHT22;50159;49.426;11.182;2022-12-17T06:37:16;-9.90;99.90
11538;DHT22;50159;49.426;11.182;2022-12-17T06:40:01;-9.90;99.90
11538;DHT22;50159;49.426;11.182;2022-12-17T06:42:54;-9.90;99.90
11538;DHT22;50159;49.426;11.182;2022-12-17T06:45:40;-9.60;99.90
11538;DHT22;50159;49.426;11.182;2022-12-17T06:48:26;-10.00;99.90
11538;DHT22;50159;49.426;11.182;2022-12-17T06:51:11;-10.00;99.90
11538;DHT22;50159;49.426;11.182;2022-12-17T06:53:56;-10.00;99.90
11538;DHT22;50159;49.426;11.182;2022-12-17T06:56:41;-9.90;99.90
11538;DHT22;50159;49.426;11.182;2022-12-17T06:59:43;-9.90;99.90
11538;DHT22;50159;49.426;11.182;2022-12-17T07:02:29;-9.80;99.90
11538;DHT22;50159;49.426;11.182;2022-12-17T07:05:14;-9.70;99.90
11538;DHT22;50159;49.426;11.182;2022-12-17T07:08:10;-9.60;99.90
11538;DHT22;50159;49.426;11.182;2022-12-17T07:10:58;-9.60;99.90
11538;DHT22;50159;49.426;11.182;2022-12-17T07:13:44;-9.60;99.90
11538;DHT22;50159;49.426;11.182;2022-12-17T07:16:31;-9.60;99.90
11538;DHT22;50159;49.426;11.182;2022-12-17T07:19:16;-9.60;99.90
11538;DHT22;50159;49.426;11.182;2022-12-17T07:22:01;-9.60;99.90
11538;DHT22;50159;49.426;11.182;2022-12-17T07:24:46;-9.60;99.90
11538;DHT22;50159;49.426;11.182;2022-12-17T07:27:32;-9.60;99.90
11538;DHT22;50159;49.426;11.182;2022-12-17T07:30:17;-9.60;99.90
11538;DHT22;50159;49.426;11.182;2022-12-17T07:33:05;-9.70;99.90
11538;DHT22;50159;49.426;11.182;2022-12-17T07:35:52;-9.70;99.90
11538;DHT22;50159;49.426;11.182;2022-12-17T07:38:38;-9.70;99.90
11538;DHT22;50159;49.426;11.182;2022-12-17T07:41:24;-9.70;99.90
11538;DHT22;50159;49.426;11.182;2022-12-17T07:44:10;-9.60;99.90
11538;DHT22;50159;49.426;11.182;2022-12-17T07:46:55;-9.60;99.90
11538;DHT22;50159;49.426;11.182;2022-12-17T07:49:40;-9.60;99.90
11538;DHT22;50159;49.426;11.182;2022-12-17T07:52:25;-9.50;99.90
11538;DHT22;50159;49.426;11.182;2022-12-17T07:55:11;-9.30;99.90
11538;DHT22;50159;49.426;11.182;2022-12-17T07:58:00;-9.20;99.90
11538;DHT22;50159;49.426;11.182;2022-12-17T08:00:48;-9.20;99.90
11538;DHT22;50159;49.426;11.182;2022-12-17T08:03:33;-9.10;99.90
11538;DHT22;50159;49.426;11.182;2022-12-17T08:06:19;-8.70;99.90
11538;DHT22;50159;49.426;11.182;2022-12-17T08:09:04;-8.30;99.90
11538;DHT22;50159;49.426;11.182;2022-12-17T08:11:50;-7.60;99.90
11538;DHT22;50159;49.426;11.182;2022-12-17T08:14:35;-6.90;99.90
11538;DHT22;50159;49.426;11.182;2022-12-17T08:17:21;-6.80;99.90
11538;DHT22;50159;49.426;11.182;2022-12-17T08:20:07;-6.80;99.80
11538;DHT22;50159;49.426;11.182;2022-12-17T08:22:59;-6.30;99.90
11538;DHT22;50159;49.426;11.182;2022-12-17T08:25:45;-5.10;99.00
11538;DHT22;50159;49.426;11.182;2022-12-17T08:28:31;-3.70;96.20
11538;DHT22;50159;49.426;11.182;2022-12-17T08:31:17;-2.70;92.40
11538;DHT22;50159;49.426;11.182;2022-12-17T08:34:03;-1.60;88.80
11538;DHT22;50159;49.426;11.182;2022-12-17T08:36:48;-0.40;79.30
11538;DHT22;50159;49.426;11.182;2022-12-17T08:39:34;0.80;67.10
11538;DHT22;50159;49.426;11.182;2022-12-17T08:42:19;0.90;64.30
11538;DHT22;50159;49.426;11.182;2022-12-17T08:45:05;0.20;58.00
11538;DHT22;50159;49.426;11.182;2022-12-17T08:47:50;-1.40;57.50
11538;DHT22;50159;49.426;11.182;2022-12-17T08:50:36;-2.90;59.70
11538;DHT22;50159;49.426;11.182;2022-12-17T08:53:21;-4.10;63.80
11538;DHT22;50159;49.426;11.182;2022-12-17T08:56:07;-4.90;68.00
11538;DHT22;50159;49.426;11.182;2022-12-17T08:58:53;-5.50;72.20
11538;DHT22;50159;49.426;11.182;2022-12-17T09:01:38;-5.90;76.20
11538;DHT22;50159;49.426;11.182;2022-12-17T09:04:24;-6.10;79.70
11538;DHT22;50159;49.426;11.182;2022-12-17T09:07:09;-6.20;83.30
11538;DHT22;50159;49.426;11.182;2022-12-17T09:09:54;-6.20;86.10
11538;DHT22;50159;49.426;11.182;2022-12-17T09:12:39;-6.30;88.80
11538;DHT22;50159;49.426;11.182;2022-12-17T09:15:30;-6.30;90.50
11538;DHT22;50159;49.426;11.182;2022-12-17T09:18:20;-6.30;91.60
11538;DHT22;50159;49.426;11.182;2022-12-17T09:21:07;-6.20;92.70
11538;DHT22;50159;49.426;11.182;2022-12-17T09:23:53;-6.10;93.50
11538;DHT22;50159;49.426;11.182;2022-12-17T09:26:38;-6.10;94.00
11538;DHT22;50159;49.426;11.182;2022-12-17T09:29:23;-6.00;95.00
11538;DHT22;50159;49.426;11.182;2022-12-17T09:32:09;-5.90;95.80
11538;DHT22;50159;49.426;11.182;2022-12-17T09:34:54;-5.80;96.20
11538;DHT22;50159;49.426;11.182;2022-12-17T09:37:39;-5.70;96.80
11538;DHT22;50159;49.426;11.182;2022-12-17T09:40:25;-5.70;97.20
11538;DHT22;50159;49.426;11.182;2022-12-17T09:47:06;-5.60;97.90
11538;DHT22;50159;49.426;11.182;2022-12-17T09:50:02;-5.50;98.40
11538;DHT22;50159;49.426;11.182;2022-12-17T09:52:53;-5.40;98.50
11538;DHT22;50159;49.426;11.182;2022-12-17T09:55:49;-5.40;99.20
11538;DHT22;50159;49.426;11.182;2022-12-17T09:58:38;-5.30;99.30
11538;DHT22;50159;49.426;11.182;2022-12-17T10:01:32;-5.20;99.30
11538;DHT22;50159;49.426;11.182;2022-12-17T10:04:39;-5.10;99.50
11538;DHT22;50159;49.426;11.182;2022-12-17T10:07:34;-5.00;99.70
11538;DHT22;50159;49.426;11.182;2022-12-17T10:10:30;-4.90;99.90
11538;DHT22;50159;49.426;11.182;2022-12-17T10:13:19;-4.90;99.90
11538;DHT22;50159;49.426;11.182;2022-12-17T10:16:21;-4.80;99.90
11538;DHT22;50159;49.426;11.182;2022-12-17T10:19:14;-4.60;99.90
11538;DHT22;50159;49.426;11.182;2022-12-17T10:22:13;-4.60;99.90
11538;DHT22;50159;49.426;11.182;2022-12-17T10:28:05;-4.40;99.90
11538;DHT22;50159;49.426;11.182;2022-12-17T10:30:54;-4.30;99.90
11538;DHT22;50159;49.426;11.182;2022-12-17T10:33:40;-4.20;99.90
11538;DHT22;50159;49.426;11.182;2022-12-17T10:36:27;-4.20;99.90
11538;DHT22;50159;49.426;11.182;2022-12-17T10:39:20;-4.10;99.90
11538;DHT22;50159;49.426;11.182;2022-12-17T10:42:26;-4.10;99.90
11538;DHT22;50159;49.426;11.182;2022-12-17T10:45:25;-4.00;99.90
11538;DHT22;50159;49.426;11.182;2022-12-17T10:48:30;-3.90;99.90
11538;DHT22;50159;49.426;11.182;2022-12-17T10:54:26;-3.60;99.90
11538;DHT22;50159;49.426;11.182;2022-12-17T10:57:35;-3.50;99.90
11538;DHT22;50159;49.426;11.182;2022-12-17T11:00:33;-3.30;99.70
11538;DHT22;50159;49.426;11.182;2022-12-17T11:06:24;-3.10;98.70
11538;DHT22;50159;49.426;11.182;2022-12-17T11:09:36;-3.10;98.50
11538;DHT22;50159;49.426;11.182;2022-12-17T11:12:45;-3.00;98.50
11538;DHT22;50159;49.426;11.182;2022-12-17T11:15:59;-2.80;99.00
11538;DHT22;50159;49.426;11.182;2022-12-17T11:18:50;-2.50;98.30
11538;DHT22;50159;49.426;11.182;2022-12-17T11:21:50;-2.40;97.50
11538;DHT22;50159;49.426;11.182;2022-12-17T11:25:25;-2.40;97.00
11538;DHT22;50159;49.426;11.182;2022-12-17T11:28:28;-2.20;96.90
11538;DHT22;50159;49.426;11.182;2022-12-17T11:37:29;2.10;96.70
11538;DHT22;50159;49.426;11.182;2022-12-17T11:40:37;5.70;80.30
11538;DHT22;50159;49.426;11.182;2022-12-17T11:43:45;8.60;60.40
11538;DHT22;50159;49.426;11.182;2022-12-17T11:47:06;10.40;49.30
11538;DHT22;50159;49.426;11.182;2022-12-17T11:53:35;12.20;41.10
11538;DHT22;50159;49.426;11.182;2022-12-17T11:56:44;13.10;38.30
11538;DHT22;50159;49.426;11.182;2022-12-17T11:59:48;14.00;35.60
11538;DHT22;50159;49.426;11.182;2022-12-17T12:02:44;14.40;34.10
11538;DHT22;50159;49.426;11.182;2022-12-17T12:12:30;15.50;31.00
11538;DHT22;50159;49.426;11.182;2022-12-17T12:18:28;13.40;32.70
11538;DHT22;50159;49.426;11.182;2022-12-17T12:25:20;14.40;32.10
11538;DHT22;50159;49.426;11.182;2022-12-17T12:31:40;15.90;30.00
11538;DHT22;50159;49.426;11.182;2022-12-17T12:34:36;16.60;29.10
11538;DHT22;50159;49.426;11.182;2022-12-17T12:37:23;17.30;29.40
11538;DHT22;50159;49.426;11.182;2022-12-17T12:43:25;18.00;27.20
11538;DHT22;50159;49.426;11.182;2022-12-17T12:46:25;18.50;27.20
11538;DHT22;50159;49.426;11.182;2022-12-17T12:49:29;18.90;27.00
11538;DHT22;50159;49.426;11.182;2022-12-17T12:52:21;18.60;26.20
11538;DHT22;50159;49.426;11.182;2022-12-17T12:55:09;18.50;26.90
11538;DHT22;50159;49.426;11.182;2022-12-17T12:58:03;19.00;26.60
11538;DHT22;50159;49.426;11.182;2022-12-17T13:00:54;19.30;25.50
11538;DHT22;50159;49.426;11.182;2022-12-17T13:07:01;19.70;25.70
11538;DHT22;50159;49.426;11.182;2022-12-17T13:09:31;19.70;25.50
11538;DHT22;50159;49.426;11.182;2022-12-17T13:14:34;19.50;25.30
11538;DHT22;50159;49.426;11.182;2022-12-17T13:24:52;18.40;26.10
11538;DHT22;50159;49.426;11.182;2022-12-17T13:33:26;13.00;29.20
11538;DHT22;50159;49.426;11.182;2022-12-17T13:42:26;7.30;40.00
11538;DHT22;50159;49.426;11.182;2022-12-17T13:44:56;6.20;43.20
11538;DHT22;50159;49.426;11.182;2022-12-17T13:47:29;5.80;44.80
11538;DHT22;50159;49.426;11.182;2022-12-17T13:49:59;5.60;46.00
11538;DHT22;50159;49.426;11.182;2022-12-17T13:52:48;5.70;46.10
11538;DHT22;50159;49.426;11.182;2022-12-17T13:55:23;6.80;43.90
11538;DHT22;50159;49.426;11.182;2022-12-17T13:57:52;6.90;42.40
11538;DHT22;50159;49.426;11.182;2022-12-17T14:00:27;6.40;42.50
11538;DHT22;50159;49.426;11.182;2022-12-17T14:02:55;5.20;44.00
11538;DHT22;50159;49.426;11.182;2022-12-17T14:05:32;4.10;46.10
11538;DHT22;50159;49.426;11.182;2022-12-17T14:08:04;3.10;48.30
11538;DHT22;50159;49.426;11.182;2022-12-17T14:10:31;2.30;50.60
11538;DHT22;50159;49.426;11.182;2022-12-17T14:13:11;1.70;52.20
11538;DHT22;50159;49.426;11.182;2022-12-17T14:15:44;1.20;54.00
11538;DHT22;50159;49.426;11.182;2022-12-17T14:18:17;0.80;55.60
11538;DHT22;50159;49.426;11.182;2022-12-17T14:20:45;0.50;57.10
11538;DHT22;50159;49.426;11.182;2022-12-17T14:23:22;0.30;58.40
11538;DHT22;50159;49.426;11.182;2022-12-17T14:25:54;0.00;59.30
11538;DHT22;50159;49.426;11.182;2022-12-17T14:28:34;-0.20;60.30
11538;DHT22;50159;49.426;11.182;2022-12-17T14:34:18;-0.60;63.10
11538;DHT22;50159;49.426;11.182;2022-12-17T14:36:45;-0.80;64.90
11538;DHT22;50159;49.426;11.182;2022-12-17T14:39:22;-0.90;66.00
11538;DHT22;50159;49.426;11.182;2022-12-17T14:41:51;-1.10;67.00
11538;DHT22;50159;49.426;11.182;2022-12-17T14:47:39;-1.50;70.20
11538;DHT22;50159;49.426;11.182;2022-12-17T14:50:28;-1.60;72.60
11538;DHT22;50159;49.426;11.182;2022-12-17T14:55:56;-1.90;78.70
11538;DHT22;50159;49.426;11.182;2022-12-17T14:58:25;-2.10;82.90
11538;DHT22;50159;49.426;11.182;2022-12-17T15:03:37;-2.30;89.80
11538;DHT22;50159;49.426;11.182;2022-12-17T15:06:08;-2.50;91.30
11538;DHT22;50159;49.426;11.182;2022-12-17T15:08:43;-2.60;92.60
11538;DHT22;50159;49.426;11.182;2022-12-17T15:11:14;-2.70;94.10
11538;DHT22;50159;49.426;11.182;2022-12-17T15:13:45;-2.80;95.10
11538;DHT22;50159;49.426;11.182;2022-12-17T15:16:20;-3.00;96.10
11538;DHT22;50159;49.426;11.182;2022-12-17T15:18:46;-3.10;97.10
11538;DHT22;50159;49.426;11.182;2022-12-17T15:21:14;-3.20;98.10
11538;DHT22;50159;49.426;11.182;2022-12-17T15:23:43;-3.30;98.80
11538;DHT22;50159;49.426;11.182;2022-12-17T15:26:11;-3.50;99.90
11538;DHT22;50159;49.426;11.182;2022-12-17T15:28:40;-3.60;99.90
11538;DHT22;50159;49.426;11.182;2022-12-17T15:31:09;-3.70;99.90
11538;DHT22;50159;49.426;11.182;2022-12-17T15:33:38;-3.70;99.90
11538;DHT22;50159;49.426;11.182;2022-12-17T15:36:06;-3.80;99.90
11538;DHT22;50159;49.426;11.182;2022-12-17T15:38:34;-3.90;99.90
11538;DHT22;50159;49.426;11.182;2022-12-17T15:41:05;-3.90;99.90
11538;DHT22;50159;49.426;11.182;2022-12-17T15:43:50;-4.00;99.90
11538;DHT22;50159;49.426;11.182;2022-12-17T15:46:17;-4.10;99.90
11538;DHT22;50159;49.426;11.182;2022-12-17T15:48:44;-4.20;99.90
11538;DHT22;50159;49.426;11.182;2022-12-17T15:51:16;-4.30;99.90
11538;DHT22;50159;49.426;11.182;2022-12-17T15:53:46;-4.40;99.90
11538;DHT22;50159;49.426;11.182;2022-12-17T15:56:22;-4.50;99.90
11538;DHT22;50159;49.426;11.182;2022-12-17T15:58:51;-4.60;99.90
11538;DHT22;50159;49.426;11.182;2022-12-17T16:01:18;-4.60;99.90
11538;DHT22;50159;49.426;11.182;2022-12-17T16:03:45;-4.70;99.90
11538;DHT22;50159;49.426;11.182;2022-12-17T16:06:12;-4.80;99.90
11538;DHT22;50159;49.426;11.182;2022-12-17T16:08:39;-4.90;99.90
11538;DHT22;50159;49.426;11.182;2022-12-17T16:11:11;-5.00;99.90
11538;DHT22;50159;49.426;11.182;2022-12-17T16:13:41;-5.10;99.90
11538;DHT22;50159;49.426;11.182;2022-12-17T16:16:08;-5.20;99.90
11538;DHT22;50159;49.426;11.182;2022-12-17T16:18:35;-5.30;99.90
11538;DHT22;50159;49.426;11.182;2022-12-17T16:21:07;-5.30;99.90
11538;DHT22;50159;49.426;11.182;2022-12-17T16:23:35;-5.40;99.90
11538;DHT22;50159;49.426;11.182;2022-12-17T16:26:05;-5.50;99.90
11538;DHT22;50159;49.426;11.182;2022-12-17T16:28:34;-5.50;99.90
11538;DHT22;50159;49.426;11.182;2022-12-17T16:31:05;-5.50;99.90
11538;DHT22;50159;49.426;11.182;2022-12-17T16:33:37;-5.60;99.90
11538;DHT22;50159;49.426;11.182;2022-12-17T16:36:06;-5.70;99.90
11538;DHT22;50159;49.426;11.182;2022-12-17T16:38:45;-5.70;99.90
11538;DHT22;50159;49.426;11.182;2022-12-17T16:41:15;-5.80;99.90
11538;DHT22;50159;49.426;11.182;2022-12-17T16:43:43;-5.90;99.90
11538;DHT22;50159;49.426;11.182;2022-12-17T16:46:30;-6.00;99.90
11538;DHT22;50159;49.426;11.182;2022-12-17T16:49:08;-6.10;99.90
11538;DHT22;50159;49.426;11.182;2022-12-17T16:51:39;-6.10;99.90
11538;DHT22;50159;49.426;11.182;2022-12-17T16:54:14;-6.10;99.90
11538;DHT22;50159;49.426;11.182;2022-12-17T16:56:44;-6.20;99.90
11538;DHT22;50159;49.426;11.182;2022-12-17T16:59:13;-6.30;99.90
11538;DHT22;50159;49.426;11.182;2022-12-17T17:01:43;-6.30;99.90
11538;DHT22;50159;49.426;11.182;2022-12-17T17:04:14;-6.40;99.90
11538;DHT22;50159;49.426;11.182;2022-12-17T17:06:48;-6.40;99.90
11538;DHT22;50159;49.426;11.182;2022-12-17T17:09:17;-6.40;99.90
11538;DHT22;50159;49.426;11.182;2022-12-17T17:11:45;-6.50;99.90
11538;DHT22;50159;49.426;11.182;2022-12-17T17:14:18;-6.50;99.90
11538;DHT22;50159;49.426;11.182;2022-12-17T17:16:45;-6.60;99.90
11538;DHT22;50159;49.426;11.182;2022-12-17T17:19:12;-6.70;99.90
11538;DHT22;50159;49.426;11.182;2022-12-17T17:21:48;-6.70;99.90
11538;DHT22;50159;49.426;11.182;2022-12-17T17:24:21;-6.80;99.90
11538;DHT22;50159;49.426;11.182;2022-12-17T17:26:52;-6.80;99.90
11538;DHT22;50159;49.426;11.182;2022-12-17T17:29:21;-6.90;99.90
11538;DHT22;50159;49.426;11.182;2022-12-17T17:31:48;-6.90;99.90
11538;DHT22;50159;49.426;11.182;2022-12-17T17:34:38;-7.00;99.90
11538;DHT22;50159;49.426;11.182;2022-12-17T17:37:05;-7.00;99.90
11538;DHT22;50159;49.426;11.182;2022-12-17T17:39:32;-7.00;99.90
11538;DHT22;50159;49.426;11.182;2022-12-17T17:42:00;-7.10;99.90
11538;DHT22;50159;49.426;11.182;2022-12-17T17:44:26;-7.20;99.90
11538;DHT22;50159;49.426;11.182;2022-12-17T17:46:53;-7.20;99.90
11538;DHT22;50159;49.426;11.182;2022-12-17T17:49:20;-7.30;99.90
11538;DHT22;50159;49.426;11.182;2022-12-17T17:51:47;-7.40;99.90
11538;DHT22;50159;49.426;11.182;2022-12-17T17:54:36;-7.40;99.90
11538;DHT22;50159;49.426;11.182;2022-12-17T17:57:04;-7.50;99.90
11538;DHT22;50159;49.426;11.182;2022-12-17T17:59:31;-7.50;99.90
11538;DHT22;50159;49.426;11.182;2022-12-17T18:02:00;-7.60;99.90
11538;DHT22;50159;49.426;11.182;2022-12-17T18:04:28;-7.60;99.90
11538;DHT22;50159;49.426;11.182;2022-12-17T18:06:56;-7.60;99.90
11538;DHT22;50159;49.426;11.182;2022-12-17T18:09:42;-7.70;99.90
11538;DHT22;50159;49.426;11.182;2022-12-17T18:12:09;-7.70;99.90
11538;DHT22;50159;49.426;11.182;2022-12-17T18:14:54;-7.70;99.90
11538;DHT22;50159;49.426;11.182;2022-12-17T18:17:42;-7.80;99.90
11538;DHT22;50159;49.426;11.182;2022-12-17T18:20:10;-7.70;99.90
11538;DHT22;50159;49.426;11.182;2022-12-17T18:22:38;-7.80;99.90
11538;DHT22;50159;49.426;11.182;2022-12-17T18:25:05;-7.90;99.90
11538;DHT22;50159;49.426;11.182;2022-12-17T18:27:32;-7.90;99.90